sensor_id;sensor_type;location;lat;lon;timestamp;pressure;altitude;pressure_sealevel;temperature;humidity
75996;BME280;64681;49.738;9.004;2023-12-29T00:02:20;99421.63;;;9.50;82.89
75996;BME280;64681;49.738;9.004;2023-12-29T00:04:45;99428.38;;;9.47;83.17
75996;BME280;64681;49.738;9.004;2023-12-29T00:07:12;99433.34;;;9.58;82.81
75996;BME280;64681;49.738;9.004;2023-12-29T00:09:38;99425.47;;;9.61;81.71
75996;BME280;64681;49.738;9.004;2023-12-29T00:12:07;99433.56;;;9.44;83.21
75996;BME280;64681;49.738;9.004;2023-12-29T00:14:33;99428.44;;;9.30;83.00
75996;BME280;64681;49.738;9.004;2023-12-29T00:16:58;99421.38;;;9.34;83.91
75996;BME280;64681;49.738;9.004;2023-12-29T00:19:25;99418.41;;;9.27;84.25
75996;BME280;64681;49.738;9.004;2023-12-29T00:21:50;99427.38;;;9.22;84.05
75996;BME280;64681;49.738;9.004;2023-12-29T00:24:16;99424.03;;;9.34;83.71
75996;BME280;64681;49.738;9.004;2023-12-29T00:26:42;99408.69;;;9.31;83.56
75996;BME280;64681;49.738;9.004;2023-12-29T00:29:08;99413.09;;;9.27;83.66
75996;BME280;64681;49.738;9.004;2023-12-29T00:31:33;99399.78;;;9.27;83.48
75996;BME280;64681;49.738;9.004;2023-12-29T00:33:59;99396.81;;;9.19;83.88
75996;BME280;64681;49.738;9.004;2023-12-29T00:36:25;99397.81;;;9.06;84.74
75996;BME280;64681;49.738;9.004;2023-12-29T00:38:50;99395.72;;;9.21;83.89
75996;BME280;64681;49.738;9.004;2023-12-29T00:41:16;99390.22;;;9.26;83.12
75996;BME280;64681;49.738;9.004;2023-12-29T00:43:41;99381.50;;;9.08;84.33
75996;BME280;64681;49.738;9.004;2023-12-29T00:46:08;99377.25;;;9.15;84.55
75996;BME280;64681;49.738;9.004;2023-12-29T00:48:36;99390.13;;;9.05;84.66
75996;BME280;64681;49.738;9.004;2023-12-29T00:51:02;99382.31;;;8.99;84.43
75996;BME280;64681;49.738;9.004;2023-12-29T00:53:28;99390.44;;;9.03;84.71
75996;BME280;64681;49.738;9.004;2023-12-29T00:55:58;99388.69;;;9.16;84.12
75996;BME280;64681;49.738;9.004;2023-12-29T00:58:24;99378.44;;;9.27;83.25
75996;BME280;64681;49.738;9.004;2023-12-29T01:00:50;99384.25;;;9.20;83.54
75996;BME280;64681;49.738;9.004;2023-12-29T01:03:15;99386.34;;;9.14;83.01
75996;BME280;64681;49.738;9.004;2023-12-29T01:05:41;99395.72;;;9.21;82.46
75996;BME280;64681;49.738;9.004;2023-12-29T01:08:07;99391.50;;;9.19;82.46
75996;BME280;64681;49.738;9.004;2023-12-29T01:10:32;99392.91;;;9.08;83.52
75996;BME280;64681;49.738;9.004;2023-12-29T01:12:58;99389.81;;;9.06;83.64
75996;BME280;64681;49.738;9.004;2023-12-29T01:15:23;99389.88;;;8.80;85.41
75996;BME280;64681;49.738;9.004;2023-12-29T01:17:49;99373.69;;;8.94;84.40
75996;BME280;64681;49.738;9.004;2023-12-29T01:20:14;99376.69;;;8.92;84.05
75996;BME280;64681;49.738;9.004;2023-12-29T01:22:40;99379.66;;;8.99;83.85
75996;BME280;64681;49.738;9.004;2023-12-29T01:25:06;99387.59;;;9.17;83.33
75996;BME280;64681;49.738;9.004;2023-12-29T01:27:32;99375.78;;;8.88;84.34
75996;BME280;64681;49.738;9.004;2023-12-29T01:29:57;99377.94;;;8.95;83.92
75996;BME280;64681;49.738;9.004;2023-12-29T01:32:23;99375.28;;;8.95;84.61
75996;BME280;64681;49.738;9.004;2023-12-29T01:34:48;99366.94;;;9.05;83.83
75996;BME280;64681;49.738;9.004;2023-12-29T01:37:14;99367.94;;;8.92;83.64
75996;BME280;64681;49.738;9.004;2023-12-29T01:39:39;99356.38;;;8.70;84.03
75996;BME280;64681;49.738;9.004;2023-12-29T01:42:08;99364.69;;;8.77;84.10
75996;BME280;64681;49.738;9.004;2023-12-29T01:44:33;99358.22;;;8.78;83.66
75996;BME280;64681;49.738;9.004;2023-12-29T01:47:00;99348.38;;;8.79;83.62
75996;BME280;64681;49.738;9.004;2023-12-29T01:49:27;99346.94;;;8.90;83.13
75996;BME280;64681;49.738;9.004;2023-12-29T01:51:56;99358.09;;;8.83;83.36
75996;BME280;64681;49.738;9.004;2023-12-29T01:54:25;99350.00;;;8.62;84.23
75996;BME280;64681;49.738;9.004;2023-12-29T01:56:54;99342.44;;;8.73;84.17
75996;BME280;64681;49.738;9.004;2023-12-29T01:59:22;99347.75;;;8.73;82.85
75996;BME280;64681;49.738;9.004;2023-12-29T02:01:50;99338.84;;;8.78;83.33
75996;BME280;64681;49.738;9.004;2023-12-29T02:04:17;99336.63;;;8.80;82.28
75996;BME280;64681;49.738;9.004;2023-12-29T02:06:43;99332.38;;;8.87;82.07
75996;BME280;64681;49.738;9.004;2023-12-29T02:09:09;99327.56;;;8.72;82.86
75996;BME280;64681;49.738;9.004;2023-12-29T02:11:35;99330.03;;;8.86;82.23
75996;BME280;64681;49.738;9.004;2023-12-29T02:14:01;99332.75;;;8.77;82.37
75996;BME280;64681;49.738;9.004;2023-12-29T02:19:44;99312.91;;;8.57;83.00
75996;BME280;64681;49.738;9.004;2023-12-29T02:22:11;99315.56;;;8.48;83.91
75996;BME280;64681;49.738;9.004;2023-12-29T02:24:39;99310.56;;;8.38;84.09
75996;BME280;64681;49.738;9.004;2023-12-29T02:27:31;99305.22;;;8.55;83.91
75996;BME280;64681;49.738;9.004;2023-12-29T02:30:28;99310.84;;;8.63;82.54
75996;BME280;64681;49.738;9.004;2023-12-29T02:33:01;99311.44;;;8.77;82.30
75996;BME280;64681;49.738;9.004;2023-12-29T02:35:39;99313.34;;;8.68;81.66
75996;BME280;64681;49.738;9.004;2023-12-29T02:38:06;99310.72;;;8.50;82.55
75996;BME280;64681;49.738;9.004;2023-12-29T02:40:32;99316.81;;;8.60;82.32
75996;BME280;64681;49.738;9.004;2023-12-29T02:42:58;99320.72;;;8.62;81.66
75996;BME280;64681;49.738;9.004;2023-12-29T02:45:23;99320.75;;;8.53;82.57
75996;BME280;64681;49.738;9.004;2023-12-29T02:47:49;99329.81;;;8.52;82.46
75996;BME280;64681;49.738;9.004;2023-12-29T02:50:15;99316.34;;;8.58;82.13
75996;BME280;64681;49.738;9.004;2023-12-29T02:52:41;99318.53;;;8.64;82.17
75996;BME280;64681;49.738;9.004;2023-12-29T02:55:07;99311.94;;;8.62;82.87
75996;BME280;64681;49.738;9.004;2023-12-29T02:57:32;99318.66;;;8.68;82.27
75996;BME280;64681;49.738;9.004;2023-12-29T02:59:58;99320.72;;;8.62;82.70
75996;BME280;64681;49.738;9.004;2023-12-29T03:02:24;99326.94;;;8.66;82.53
75996;BME280;64681;49.738;9.004;2023-12-29T03:04:50;99330.56;;;8.70;82.26
75996;BME280;64681;49.738;9.004;2023-12-29T03:07:16;99333.06;;;8.67;82.19
75996;BME280;64681;49.738;9.004;2023-12-29T03:09:41;99347.59;;;8.78;81.35
75996;BME280;64681;49.738;9.004;2023-12-29T03:12:07;99344.09;;;8.95;80.66
75996;BME280;64681;49.738;9.004;2023-12-29T03:14:33;99338.69;;;8.74;81.65
75996;BME280;64681;49.738;9.004;2023-12-29T03:16:58;99359.16;;;8.91;81.37
75996;BME280;64681;49.738;9.004;2023-12-29T03:19:24;99351.16;;;8.91;80.08
75996;BME280;64681;49.738;9.004;2023-12-29T03:21:50;99349.16;;;8.88;80.91
75996;BME280;64681;49.738;9.004;2023-12-29T03:24:16;99341.56;;;8.51;82.12
75996;BME280;64681;49.738;9.004;2023-12-29T03:26:42;99355.28;;;8.71;81.57
75996;BME280;64681;49.738;9.004;2023-12-29T03:29:08;99361.56;;;8.58;81.36
75996;BME280;64681;49.738;9.004;2023-12-29T03:31:34;99358.47;;;8.47;82.96
75996;BME280;64681;49.738;9.004;2023-12-29T03:33:59;99361.44;;;8.54;82.17
75996;BME280;64681;49.738;9.004;2023-12-29T03:36:25;99341.81;;;8.67;81.12
75996;BME280;64681;49.738;9.004;2023-12-29T03:38:51;99346.72;;;8.48;82.10
75996;BME280;64681;49.738;9.004;2023-12-29T03:41:16;99350.59;;;8.59;82.03
75996;BME280;64681;49.738;9.004;2023-12-29T03:43:42;99339.22;;;8.50;82.05
75996;BME280;64681;49.738;9.004;2023-12-29T03:46:20;99325.88;;;8.41;82.23
75996;BME280;64681;49.738;9.004;2023-12-29T03:48:46;99333.41;;;8.39;81.51
75996;BME280;64681;49.738;9.004;2023-12-29T03:51:12;99342.16;;;8.48;81.63
75996;BME280;64681;49.738;9.004;2023-12-29T03:53:38;99329.63;;;8.40;81.62
75996;BME280;64681;49.738;9.004;2023-12-29T03:56:07;99334.34;;;8.43;80.56
75996;BME280;64681;49.738;9.004;2023-12-29T03:58:34;99327.91;;;8.44;81.32
75996;BME280;64681;49.738;9.004;2023-12-29T04:01:00;99325.91;;;8.50;80.37
75996;BME280;64681;49.738;9.004;2023-12-29T04:03:25;99320.72;;;8.45;79.90
75996;BME280;64681;49.738;9.004;2023-12-29T04:05:51;99316.50;;;8.35;80.04
75996;BME280;64681;49.738;9.004;2023-12-29T04:08:16;99314.78;;;8.39;79.71
75996;BME280;64681;49.738;9.004;2023-12-29T04:10:42;99309.00;;;8.37;80.41
75996;BME280;64681;49.738;9.004;2023-12-29T04:13:08;99319.31;;;8.47;79.58
75996;BME280;64681;49.738;9.004;2023-12-29T04:15:33;99305.06;;;8.43;79.57
75996;BME280;64681;49.738;9.004;2023-12-29T04:17:59;99303.97;;;8.53;79.21
75996;BME280;64681;49.738;9.004;2023-12-29T04:20:24;99296.16;;;8.39;79.51
75996;BME280;64681;49.738;9.004;2023-12-29T04:22:50;99297.69;;;8.40;79.68
75996;BME280;64681;49.738;9.004;2023-12-29T04:25:15;99291.78;;;8.26;80.57
75996;BME280;64681;49.738;9.004;2023-12-29T04:27:41;99281.28;;;8.38;79.59
75996;BME280;64681;49.738;9.004;2023-12-29T04:30:07;99288.97;;;8.31;79.96
75996;BME280;64681;49.738;9.004;2023-12-29T04:32:33;99276.44;;;8.31;79.91
75996;BME280;64681;49.738;9.004;2023-12-29T04:34:58;99276.78;;;8.30;80.12
75996;BME280;64681;49.738;9.004;2023-12-29T04:37:24;99269.25;;;8.23;80.76
75996;BME280;64681;49.738;9.004;2023-12-29T04:39:49;99268.47;;;8.31;79.61
75996;BME280;64681;49.738;9.004;2023-12-29T04:42:15;99267.38;;;8.32;79.13
75996;BME280;64681;49.738;9.004;2023-12-29T04:44:42;99275.19;;;8.37;79.54
75996;BME280;64681;49.738;9.004;2023-12-29T04:47:07;99266.13;;;8.30;79.35
75996;BME280;64681;49.738;9.004;2023-12-29T04:49:33;99272.06;;;8.27;79.84
75996;BME280;64681;49.738;9.004;2023-12-29T04:51:58;99265.53;;;8.15;80.58
75996;BME280;64681;49.738;9.004;2023-12-29T04:54:24;99273.81;;;8.22;79.73
75996;BME280;64681;49.738;9.004;2023-12-29T04:56:49;99283.38;;;8.06;80.54
75996;BME280;64681;49.738;9.004;2023-12-29T04:59:16;99277.28;;;7.97;81.64
75996;BME280;64681;49.738;9.004;2023-12-29T05:01:41;99283.81;;;8.17;81.17
75996;BME280;64681;49.738;9.004;2023-12-29T05:04:07;99277.09;;;8.19;80.81
75996;BME280;64681;49.738;9.004;2023-12-29T05:06:32;99282.09;;;8.30;79.83
75996;BME280;64681;49.738;9.004;2023-12-29T05:08:58;99292.59;;;8.26;80.02
75996;BME280;64681;49.738;9.004;2023-12-29T05:11:24;99282.59;;;8.14;80.55
75996;BME280;64681;49.738;9.004;2023-12-29T05:13:49;99267.69;;;8.31;80.26
75996;BME280;64681;49.738;9.004;2023-12-29T05:16:15;99253.00;;;8.16;79.98
75996;BME280;64681;49.738;9.004;2023-12-29T05:18:41;99274.56;;;8.32;79.41
75996;BME280;64681;49.738;9.004;2023-12-29T05:21:15;99281.44;;;8.42;79.04
75996;BME280;64681;49.738;9.004;2023-12-29T05:23:41;99281.28;;;8.38;78.65
75996;BME280;64681;49.738;9.004;2023-12-29T05:26:06;99277.25;;;8.23;79.32
75996;BME280;64681;49.738;9.004;2023-12-29T05:28:32;99270.50;;;8.34;78.13
75996;BME280;64681;49.738;9.004;2023-12-29T05:30:57;99287.38;;;8.38;77.68
75996;BME280;64681;49.738;9.004;2023-12-29T05:33:24;99283.00;;;8.34;78.03
75996;BME280;64681;49.738;9.004;2023-12-29T05:35:49;99290.53;;;8.32;78.49
75996;BME280;64681;49.738;9.004;2023-12-29T05:38:15;99293.84;;;8.11;79.13
75996;BME280;64681;49.738;9.004;2023-12-29T05:40:40;99294.31;;;8.13;79.24
75996;BME280;64681;49.738;9.004;2023-12-29T05:43:06;99289.91;;;8.17;78.71
75996;BME280;64681;49.738;9.004;2023-12-29T05:45:32;99290.72;;;8.18;78.52
75996;BME280;64681;49.738;9.004;2023-12-29T05:47:57;99296.16;;;8.39;77.71
75996;BME280;64681;49.738;9.004;2023-12-29T05:50:23;99311.50;;;8.33;78.67
75996;BME280;64681;49.738;9.004;2023-12-29T05:52:48;99303.66;;;8.46;78.38
75996;BME280;64681;49.738;9.004;2023-12-29T05:55:17;99298.31;;;8.54;78.05
75996;BME280;64681;49.738;9.004;2023-12-29T05:57:45;99302.13;;;8.53;77.91
75996;BME280;64681;49.738;9.004;2023-12-29T06:00:11;99301.75;;;8.64;77.17
75996;BME280;64681;49.738;9.004;2023-12-29T06:02:40;99295.22;;;8.52;78.04
75996;BME280;64681;49.738;9.004;2023-12-29T06:05:07;99279.69;;;8.46;79.16
75996;BME280;64681;49.738;9.004;2023-12-29T06:07:34;99268.44;;;8.58;78.10
75996;BME280;64681;49.738;9.004;2023-12-29T06:09:59;99274.53;;;8.58;78.29
75996;BME280;64681;49.738;9.004;2023-12-29T06:12:25;99269.31;;;8.70;77.78
75996;BME280;64681;49.738;9.004;2023-12-29T06:14:50;99265.56;;;8.71;77.31
75996;BME280;64681;49.738;9.004;2023-12-29T06:17:16;99261.41;;;8.53;79.52
75996;BME280;64681;49.738;9.004;2023-12-29T06:19:41;99252.47;;;8.40;79.06
75996;BME280;64681;49.738;9.004;2023-12-29T06:22:07;99277.38;;;8.53;79.66
75996;BME280;64681;49.738;9.004;2023-12-29T06:24:39;99269.06;;;8.46;79.42
75996;BME280;64681;49.738;9.004;2023-12-29T06:27:09;99272.47;;;8.64;78.42
75996;BME280;64681;49.738;9.004;2023-12-29T06:29:35;99280.31;;;8.69;78.61
75996;BME280;64681;49.738;9.004;2023-12-29T06:32:00;99263.09;;;8.58;79.40
75996;BME280;64681;49.738;9.004;2023-12-29T06:34:26;99281.72;;;8.58;79.59
75996;BME280;64681;49.738;9.004;2023-12-29T06:36:51;99276.97;;;8.81;78.67
75996;BME280;64681;49.738;9.004;2023-12-29T06:39:17;99266.47;;;8.76;79.20
75996;BME280;64681;49.738;9.004;2023-12-29T06:41:43;99273.84;;;8.70;79.29
75996;BME280;64681;49.738;9.004;2023-12-29T06:44:08;99273.13;;;8.61;80.60
75996;BME280;64681;49.738;9.004;2023-12-29T06:46:34;99278.44;;;8.61;80.01
75996;BME280;64681;49.738;9.004;2023-12-29T06:48:59;99278.75;;;8.59;80.74
75996;BME280;64681;49.738;9.004;2023-12-29T06:51:25;99278.59;;;8.64;80.80
75996;BME280;64681;49.738;9.004;2023-12-29T06:53:50;99277.31;;;8.70;80.30
75996;BME280;64681;49.738;9.004;2023-12-29T06:56:16;99269.91;;;8.85;79.66
75996;BME280;64681;49.738;9.004;2023-12-29T06:58:43;99273.47;;;8.89;79.34
75996;BME280;64681;49.738;9.004;2023-12-29T07:01:09;99269.34;;;9.00;79.07
75996;BME280;64681;49.738;9.004;2023-12-29T07:03:34;99278.94;;;8.93;78.73
75996;BME280;64681;49.738;9.004;2023-12-29T07:06:01;99277.75;;;9.11;78.20
75996;BME280;64681;49.738;9.004;2023-12-29T07:08:29;99302.28;;;8.96;79.30
75996;BME280;64681;49.738;9.004;2023-12-29T07:10:55;99298.56;;;9.18;78.62
75996;BME280;64681;49.738;9.004;2023-12-29T07:13:21;99307.16;;;9.24;78.04
75996;BME280;64681;49.738;9.004;2023-12-29T07:15:47;99311.16;;;9.39;77.80
75996;BME280;64681;49.738;9.004;2023-12-29T07:18:14;99306.28;;;9.41;77.44
75996;BME280;64681;49.738;9.004;2023-12-29T07:20:40;99305.81;;;9.39;77.69
75996;BME280;64681;49.738;9.004;2023-12-29T07:23:05;99300.19;;;9.61;76.91
75996;BME280;64681;49.738;9.004;2023-12-29T07:25:31;99311.09;;;9.47;77.29
75996;BME280;64681;49.738;9.004;2023-12-29T07:27:56;99307.59;;;9.56;77.11
75996;BME280;64681;49.738;9.004;2023-12-29T07:30:22;99304.50;;;9.54;77.33
75996;BME280;64681;49.738;9.004;2023-12-29T07:32:47;99309.72;;;9.41;77.15
75996;BME280;64681;49.738;9.004;2023-12-29T07:35:13;99306.69;;;9.52;78.33
75996;BME280;64681;49.738;9.004;2023-12-29T07:37:43;99312.13;;;9.34;78.66
75996;BME280;64681;49.738;9.004;2023-12-29T07:40:10;99309.66;;;9.29;78.37
75996;BME280;64681;49.738;9.004;2023-12-29T07:42:36;99303.88;;;9.48;77.92
75996;BME280;64681;49.738;9.004;2023-12-29T07:45:01;99304.31;;;9.80;75.75
75996;BME280;64681;49.738;9.004;2023-12-29T07:47:27;99291.69;;;9.68;76.36
75996;BME280;64681;49.738;9.004;2023-12-29T07:49:52;99304.41;;;9.62;76.48
75996;BME280;64681;49.738;9.004;2023-12-29T07:52:18;99304.81;;;9.73;75.92
75996;BME280;64681;49.738;9.004;2023-12-29T07:54:43;99301.56;;;9.68;76.57
75996;BME280;64681;49.738;9.004;2023-12-29T07:57:09;99312.19;;;9.76;75.69
75996;BME280;64681;49.738;9.004;2023-12-29T07:59:35;99316.38;;;9.77;75.34
75996;BME280;64681;49.738;9.004;2023-12-29T08:02:00;99323.03;;;9.92;75.06
75996;BME280;64681;49.738;9.004;2023-12-29T08:04:26;99319.16;;;9.81;75.83
75996;BME280;64681;49.738;9.004;2023-12-29T08:06:51;99315.41;;;9.82;74.61
75996;BME280;64681;49.738;9.004;2023-12-29T08:09:17;99330.38;;;9.95;74.72
75996;BME280;64681;49.738;9.004;2023-12-29T08:11:42;99335.59;;;9.92;74.64
75996;BME280;64681;49.738;9.004;2023-12-29T08:14:08;99322.75;;;9.85;75.08
75996;BME280;64681;49.738;9.004;2023-12-29T08:16:39;99330.19;;;9.79;74.20
75996;BME280;64681;49.738;9.004;2023-12-29T08:19:06;99345.06;;;9.80;73.68
75996;BME280;64681;49.738;9.004;2023-12-29T08:21:33;99337.84;;;9.60;74.38
75996;BME280;64681;49.738;9.004;2023-12-29T08:23:58;99332.25;;;9.95;73.07
75996;BME280;64681;49.738;9.004;2023-12-29T08:26:24;99337.25;;;9.96;73.37
75996;BME280;64681;49.738;9.004;2023-12-29T08:28:50;99334.47;;;9.72;73.05
75996;BME280;64681;49.738;9.004;2023-12-29T08:31:16;99336.44;;;9.84;73.50
75996;BME280;64681;49.738;9.004;2023-12-29T08:33:42;99353.81;;;9.90;73.37
75996;BME280;64681;49.738;9.004;2023-12-29T08:36:07;99344.38;;;9.92;73.48
75996;BME280;64681;49.738;9.004;2023-12-29T08:38:33;99341.56;;;9.89;73.62
75996;BME280;64681;49.738;9.004;2023-12-29T08:40:59;99341.88;;;10.08;72.51
75996;BME280;64681;49.738;9.004;2023-12-29T08:43:24;99340.25;;;10.16;72.57
75996;BME280;64681;49.738;9.004;2023-12-29T08:45:50;99328.72;;;10.24;71.73
75996;BME280;64681;49.738;9.004;2023-12-29T08:48:16;99327.75;;;10.29;71.34
75996;BME280;64681;49.738;9.004;2023-12-29T08:50:42;99324.50;;;10.23;71.84
75996;BME280;64681;49.738;9.004;2023-12-29T08:53:10;99337.97;;;10.06;72.87
75996;BME280;64681;49.738;9.004;2023-12-29T08:55:36;99335.50;;;10.22;72.56
75996;BME280;64681;49.738;9.004;2023-12-29T08:58:01;99331.41;;;10.03;73.28
75996;BME280;64681;49.738;9.004;2023-12-29T09:00:27;99328.28;;;10.22;72.93
75996;BME280;64681;49.738;9.004;2023-12-29T09:02:54;99326.91;;;10.16;71.87
75996;BME280;64681;49.738;9.004;2023-12-29T09:05:19;99319.00;;;10.07;71.79
75996;BME280;64681;49.738;9.004;2023-12-29T09:07:45;99322.56;;;10.11;72.71
75996;BME280;64681;49.738;9.004;2023-12-29T09:10:10;99324.69;;;10.39;73.15
75996;BME280;64681;49.738;9.004;2023-12-29T09:12:38;99313.19;;;10.26;71.98
75996;BME280;64681;49.738;9.004;2023-12-29T09:15:05;99321.44;;;10.34;72.16
75996;BME280;64681;49.738;9.004;2023-12-29T09:17:31;99314.38;;;10.50;71.10
75996;BME280;64681;49.738;9.004;2023-12-29T09:19:56;99308.94;;;10.59;70.71
75996;BME280;64681;49.738;9.004;2023-12-29T09:22:22;99302.38;;;10.56;70.92
75996;BME280;64681;49.738;9.004;2023-12-29T09:24:48;99309.81;;;10.51;71.03
75996;BME280;64681;49.738;9.004;2023-12-29T09:27:13;99293.81;;;10.29;71.34
75996;BME280;64681;49.738;9.004;2023-12-29T09:29:39;99281.16;;;10.26;71.29
75996;BME280;64681;49.738;9.004;2023-12-29T09:32:06;99301.69;;;10.47;70.84
75996;BME280;64681;49.738;9.004;2023-12-29T09:34:31;99302.63;;;10.64;69.19
75996;BME280;64681;49.738;9.004;2023-12-29T09:36:57;99314.94;;;10.56;70.65
75996;BME280;64681;49.738;9.004;2023-12-29T09:39:22;99315.28;;;10.54;71.37
75996;BME280;64681;49.738;9.004;2023-12-29T09:41:51;99314.81;;;10.40;71.55
75996;BME280;64681;49.738;9.004;2023-12-29T09:44:20;99314.31;;;10.71;70.55
75996;BME280;64681;49.738;9.004;2023-12-29T09:46:53;99307.53;;;10.99;68.80
75996;BME280;64681;49.738;9.004;2023-12-29T09:49:19;99307.09;;;10.72;69.37
75996;BME280;64681;49.738;9.004;2023-12-29T09:51:47;99303.66;;;10.96;68.74
75996;BME280;64681;49.738;9.004;2023-12-29T09:54:13;99305.97;;;10.98;69.78
75996;BME280;64681;49.738;9.004;2023-12-29T09:56:41;99294.97;;;11.36;68.73
75996;BME280;64681;49.738;9.004;2023-12-29T09:59:09;99298.75;;;11.11;68.38
75996;BME280;64681;49.738;9.004;2023-12-29T10:01:37;99304.66;;;11.04;68.33
75996;BME280;64681;49.738;9.004;2023-12-29T10:04:02;99299.97;;;10.88;69.53
75996;BME280;64681;49.738;9.004;2023-12-29T10:06:34;99309.22;;;11.28;68.68
75996;BME280;64681;49.738;9.004;2023-12-29T10:09:03;99299.09;;;11.09;68.68
75996;BME280;64681;49.738;9.004;2023-12-29T10:11:34;99296.66;;;11.16;69.16
75996;BME280;64681;49.738;9.004;2023-12-29T10:14:18;99298.97;;;11.43;68.39
75996;BME280;64681;49.738;9.004;2023-12-29T10:16:53;99278.94;;;11.77;67.47
75996;BME280;64681;49.738;9.004;2023-12-29T10:19:41;99298.09;;;11.79;67.43
75996;BME280;64681;49.738;9.004;2023-12-29T10:22:26;99294.19;;;11.77;67.75
75996;BME280;64681;49.738;9.004;2023-12-29T10:24:57;99291.28;;;11.82;67.01
75996;BME280;64681;49.738;9.004;2023-12-29T10:27:23;99290.84;;;11.80;67.18
75996;BME280;64681;49.738;9.004;2023-12-29T10:29:48;99281.34;;;11.42;68.88
75996;BME280;64681;49.738;9.004;2023-12-29T10:32:14;99288.13;;;11.51;68.62
75996;BME280;64681;49.738;9.004;2023-12-29T10:34:39;99281.97;;;11.63;68.44
75996;BME280;64681;49.738;9.004;2023-12-29T10:37:07;99285.16;;;11.81;67.46
75996;BME280;64681;49.738;9.004;2023-12-29T10:39:35;99280.63;;;11.69;67.60
75996;BME280;64681;49.738;9.004;2023-12-29T10:42:06;99283.94;;;11.79;67.06
75996;BME280;64681;49.738;9.004;2023-12-29T10:44:33;99279.19;;;11.60;67.44
75996;BME280;64681;49.738;9.004;2023-12-29T10:47:08;99283.03;;;11.46;68.20
75996;BME280;64681;49.738;9.004;2023-12-29T10:49:34;99285.72;;;11.34;68.22
75996;BME280;64681;49.738;9.004;2023-12-29T10:51:59;99273.78;;;11.44;68.21
75996;BME280;64681;49.738;9.004;2023-12-29T10:54:25;99282.91;;;11.30;68.09
75996;BME280;64681;49.738;9.004;2023-12-29T10:57:02;99275.34;;;11.32;68.20
75996;BME280;64681;49.738;9.004;2023-12-29T10:59:28;99296.19;;;11.39;67.23
75996;BME280;64681;49.738;9.004;2023-12-29T11:01:55;99277.94;;;11.04;68.49
75996;BME280;64681;49.738;9.004;2023-12-29T11:04:24;99291.09;;;11.09;69.36
75996;BME280;64681;49.738;9.004;2023-12-29T11:06:50;99286.16;;;11.23;69.33
75996;BME280;64681;49.738;9.004;2023-12-29T11:09:45;99290.84;;;11.14;69.28
75996;BME280;64681;49.738;9.004;2023-12-29T11:12:12;99276.66;;;11.38;68.10
75996;BME280;64681;49.738;9.004;2023-12-29T11:14:41;99287.97;;;11.07;69.15
75996;BME280;64681;49.738;9.004;2023-12-29T11:17:10;99291.84;;;11.22;67.95
75996;BME280;64681;49.738;9.004;2023-12-29T11:19:38;99294.75;;;11.04;68.54
75996;BME280;64681;49.738;9.004;2023-12-29T11:22:07;99299.31;;;11.04;68.45
75996;BME280;64681;49.738;9.004;2023-12-29T11:24:34;99302.09;;;11.20;67.76
75996;BME280;64681;49.738;9.004;2023-12-29T11:27:00;99301.88;;;11.00;69.46
75996;BME280;64681;49.738;9.004;2023-12-29T11:29:28;99293.97;;;11.04;69.28
75996;BME280;64681;49.738;9.004;2023-12-29T11:31:57;99298.63;;;11.19;68.63
75996;BME280;64681;49.738;9.004;2023-12-29T11:34:37;99295.97;;;11.19;69.02
75996;BME280;64681;49.738;9.004;2023-12-29T11:37:29;99307.00;;;11.05;69.24
75996;BME280;64681;49.738;9.004;2023-12-29T11:40:20;99314.69;;;10.95;69.90
75996;BME280;64681;49.738;9.004;2023-12-29T11:42:49;99318.47;;;11.06;69.95
75996;BME280;64681;49.738;9.004;2023-12-29T11:45:31;99320.22;;;11.27;68.96
75996;BME280;64681;49.738;9.004;2023-12-29T11:48:01;99327.47;;;11.26;68.09
75996;BME280;64681;49.738;9.004;2023-12-29T11:50:37;99320.47;;;11.21;67.70
75996;BME280;64681;49.738;9.004;2023-12-29T11:53:05;99313.09;;;11.43;67.10
75996;BME280;64681;49.738;9.004;2023-12-29T11:55:39;99297.22;;;11.22;66.77
75996;BME280;64681;49.738;9.004;2023-12-29T11:58:23;99306.53;;;11.16;68.10
75996;BME280;64681;49.738;9.004;2023-12-29T12:00:49;99314.56;;;11.28;67.25
75996;BME280;64681;49.738;9.004;2023-12-29T12:03:17;99304.31;;;11.43;65.80
75996;BME280;64681;49.738;9.004;2023-12-29T12:05:46;99297.25;;;11.63;65.72
75996;BME280;64681;49.738;9.004;2023-12-29T12:08:33;99297.72;;;11.52;67.25
75996;BME280;64681;49.738;9.004;2023-12-29T12:13:59;99297.50;;;11.45;65.49
75996;BME280;64681;49.738;9.004;2023-12-29T12:16:50;99293.41;;;11.35;65.56
75996;BME280;64681;49.738;9.004;2023-12-29T12:19:16;99289.44;;;11.70;65.15
75996;BME280;64681;49.738;9.004;2023-12-29T12:21:46;99284.72;;;11.79;65.74
75996;BME280;64681;49.738;9.004;2023-12-29T12:24:18;99288.03;;;11.88;65.23
75996;BME280;64681;49.738;9.004;2023-12-29T12:26:44;99285.53;;;11.67;65.57
75996;BME280;64681;49.738;9.004;2023-12-29T12:29:13;99274.97;;;11.99;63.83
75996;BME280;64681;49.738;9.004;2023-12-29T12:32:00;99269.97;;;11.98;65.17
75996;BME280;64681;49.738;9.004;2023-12-29T12:34:25;99268.09;;;11.98;65.76
75996;BME280;64681;49.738;9.004;2023-12-29T12:36:52;99273.59;;;11.77;66.26
75996;BME280;64681;49.738;9.004;2023-12-29T12:39:20;99260.81;;;11.58;67.22
75996;BME280;64681;49.738;9.004;2023-12-29T12:41:46;99272.38;;;11.75;66.06
75996;BME280;64681;49.738;9.004;2023-12-29T12:44:14;99270.22;;;11.52;67.09
75996;BME280;64681;49.738;9.004;2023-12-29T12:47:05;99264.00;;;11.23;68.31
75996;BME280;64681;49.738;9.004;2023-12-29T12:49:31;99269.72;;;11.09;67.77
75996;BME280;64681;49.738;9.004;2023-12-29T12:51:58;99275.81;;;11.09;69.64
75996;BME280;64681;49.738;9.004;2023-12-29T12:54:24;99268.22;;;11.24;69.35
75996;BME280;64681;49.738;9.004;2023-12-29T12:56:50;99264.34;;;11.09;69.53
75996;BME280;64681;49.738;9.004;2023-12-29T12:59:16;99261.53;;;11.30;68.41
75996;BME280;64681;49.738;9.004;2023-12-29T13:01:43;99263.03;;;11.03;69.15
75996;BME280;64681;49.738;9.004;2023-12-29T13:04:10;99254.34;;;11.18;70.03
75996;BME280;64681;49.738;9.004;2023-12-29T13:06:40;99249.50;;;11.36;69.36
75996;BME280;64681;49.738;9.004;2023-12-29T13:09:07;99247.00;;;11.56;67.98
75996;BME280;64681;49.738;9.004;2023-12-29T13:11:42;99245.81;;;11.82;66.97
75996;BME280;64681;49.738;9.004;2023-12-29T13:14:08;99254.38;;;11.59;68.62
75996;BME280;64681;49.738;9.004;2023-12-29T13:16:37;99249.75;;;11.72;66.72